createdAt,value
2017-05-31T00:00:56.933Z,47.26
2017-05-31T00:02:07.496Z,47.26
2017-05-31T00:03:17.786Z,47.26
2017-05-31T00:04:27.765Z,47.36
2017-05-31T00:05:37.745Z,47.26
2017-05-31T00:06:48.030Z,47.36
2017-05-31T00:07:58.560Z,47.26
2017-05-31T00:09:08.841Z,47.36
2017-05-31T00:10:19.126Z,47.24
2017-05-31T00:11:29.102Z,47.06
2017-05-31T00:12:39.442Z,47.26
2017-05-31T00:13:49.664Z,47.45
2017-05-31T00:14:59.638Z,46.97
2017-05-31T00:16:09.920Z,46.77
2017-05-31T00:17:19.882Z,47.06
2017-05-31T00:18:30.174Z,47.06
2017-05-31T00:19:40.402Z,47.24
2017-05-31T00:20:50.066Z,47.36
2017-05-31T00:22:00.043Z,47.26
2017-05-31T00:23:10.330Z,46.87
2017-05-31T00:24:20.624Z,46.97
2017-05-31T00:25:30.848Z,46.97
2017-05-31T00:26:41.133Z,46.77
2017-05-31T00:27:51.107Z,46.87
2017-05-31T00:29:01.395Z,47.16
2017-05-31T00:30:11.368Z,47.06
2017-05-31T00:31:21.279Z,46.87
2017-05-31T00:32:30.976Z,47.04
2017-05-31T00:33:40.630Z,46.94
2017-05-31T00:34:50.920Z,46.67
2017-05-31T00:36:01.208Z,46.94
2017-05-31T00:37:11.803Z,46.58
2017-05-31T00:38:22.100Z,46.84
2017-05-31T00:39:32.414Z,46.56
2017-05-31T00:40:42.088Z,46.87
2017-05-31T00:41:52.065Z,46.75
2017-05-31T00:43:02.592Z,46.77
2017-05-31T00:44:12.872Z,46.66
2017-05-31T00:45:23.174Z,46.66
2017-05-31T00:46:33.143Z,46.77
2017-05-31T00:47:43.424Z,46.75
2017-05-31T00:48:54.007Z,46.56
2017-05-31T00:50:03.827Z,46.77
2017-05-31T00:51:14.103Z,46.77
2017-05-31T00:52:24.074Z,46.56
2017-05-31T00:53:34.353Z,46.94
2017-05-31T00:54:44.885Z,46.56
2017-05-31T00:55:55.174Z,46.84
2017-05-31T00:57:05.457Z,46.87
2017-05-31T00:58:15.741Z,46.56
2017-05-31T00:59:26.028Z,46.56
2017-05-31T01:00:36.558Z,46.66
2017-05-31T01:01:46.538Z,46.39
2017-05-31T01:02:56.829Z,46.67
2017-05-31T01:04:06.810Z,46.36
2017-05-31T01:05:17.082Z,46.58
2017-05-31T01:06:27.634Z,46.66
2017-05-31T01:07:37.952Z,46.75
2017-05-31T01:08:48.229Z,46.75
2017-05-31T01:09:58.501Z,46.75
2017-05-31T01:11:08.789Z,46.84
2017-05-31T01:12:19.321Z,46.66
2017-05-31T01:13:29.605Z,47.04
2017-05-31T01:14:39.579Z,46.84
2017-05-31T01:15:49.871Z,46.84
2017-05-31T01:17:00.226Z,47.14
2017-05-31T01:18:10.141Z,46.75
2017-05-31T01:19:20.419Z,46.94
2017-05-31T01:20:30.406Z,46.94
2017-05-31T01:21:40.389Z,46.94
2017-05-31T01:22:50.669Z,46.94
2017-05-31T01:24:00.887Z,47.14
2017-05-31T01:25:11.173Z,46.84
2017-05-31T01:26:21.140Z,46.84
2017-05-31T01:27:30.801Z,46.94
2017-05-31T01:28:41.079Z,47.24
2017-05-31T01:29:51.346Z,46.94
2017-05-31T01:31:01.634Z,47.24
2017-05-31T01:32:11.919Z,47.24
2017-05-31T01:33:22.200Z,47.24
2017-05-31T01:34:32.697Z,47.24
2017-05-31T01:35:43.239Z,47.14
2017-05-31T01:36:53.520Z,47.04
2017-05-31T01:38:03.821Z,46.94
2017-05-31T01:39:13.786Z,46.94
2017-05-31T01:40:24.068Z,47.04
2017-05-31T01:41:34.598Z,46.94
2017-05-31T01:42:44.875Z,46.75
2017-05-31T01:43:54.851Z,46.94
2017-05-31T01:45:04.825Z,47.33
2017-05-31T01:46:15.102Z,47.14
2017-05-31T01:47:25.640Z,47.04
2017-05-31T01:48:35.918Z,46.94
2017-05-31T01:49:46.215Z,47.14
2017-05-31T01:50:56.189Z,47.04
2017-05-31T01:52:06.483Z,47.14
2017-05-31T01:53:16.715Z,47.24
2017-05-31T01:54:26.998Z,47.14
2017-05-31T01:55:37.284Z,47.24
2017-05-31T01:56:47.565Z,47.04
2017-05-31T01:57:57.844Z,47.24
2017-05-31T01:59:08.065Z,47.24
2017-05-31T02:00:18.032Z,47.33
2017-05-31T02:01:27.696Z,47.62
2017-05-31T02:02:37.657Z,47.14
2017-05-31T02:03:47.938Z,47.62
2017-05-31T02:04:58.164Z,47.33
2017-05-31T02:06:07.862Z,47.52
2017-05-31T02:07:17.517Z,47.33
2017-05-31T02:08:27.808Z,47.33
2017-05-31T02:09:37.807Z,47.52
2017-05-31T02:10:48.361Z,47.43
2017-05-31T02:11:58.653Z,47.62
2017-05-31T02:13:08.630Z,47.52
2017-05-31T02:14:18.951Z,47.72
2017-05-31T02:15:28.922Z,47.72
2017-05-31T02:16:39.456Z,47.72
2017-05-31T02:17:49.734Z,47.72
2017-05-31T02:18:59.767Z,47.52
2017-05-31T02:20:10.056Z,48.2
2017-05-31T02:21:20.333Z,47.72
2017-05-31T02:22:30.879Z,47.91
2017-05-31T02:23:41.156Z,48.2
2017-05-31T02:24:51.430Z,47.52
2017-05-31T02:26:01.753Z,47.81
2017-05-31T02:27:12.049Z,48.2
2017-05-31T02:28:22.582Z,47.81
2017-05-31T02:29:32.880Z,48.01
2017-05-31T02:30:43.161Z,48.01
2017-05-31T02:31:53.442Z,47.91
2017-05-31T02:33:03.720Z,47.91
2017-05-31T02:34:13.683Z,48.2
2017-05-31T02:35:23.672Z,48.11
2017-05-31T02:36:33.955Z,48.01
2017-05-31T02:37:43.934Z,48.01
2017-05-31T02:38:54.221Z,48.01
2017-05-31T02:40:04.445Z,47.91
2017-05-31T02:41:14.757Z,47.99
2017-05-31T02:42:24.741Z,47.91
2017-05-31T02:43:35.034Z,47.91
2017-05-31T02:44:45.011Z,48.01
2017-05-31T02:45:55.548Z,47.99
2017-05-31T02:47:05.567Z,47.89
2017-05-31T02:48:15.857Z,48.01
2017-05-31T02:49:25.827Z,47.89
2017-05-31T02:50:36.108Z,48.01
2017-05-31T02:51:46.327Z,48.01
2017-05-31T02:52:56.303Z,48.01
2017-05-31T02:54:06.646Z,48.08
2017-05-31T02:55:16.931Z,48.01
2017-05-31T02:56:27.224Z,47.89
2017-05-31T02:57:37.752Z,47.99
2017-05-31T02:58:47.716Z,48.01
2017-05-31T02:59:57.998Z,48.01
2017-05-31T03:01:08.275Z,48.01
2017-05-31T03:02:18.559Z,47.91
2017-05-31T03:03:28.774Z,48.18
2017-05-31T03:04:38.745Z,48.01
2017-05-31T03:05:48.781Z,48.2
2017-05-31T03:06:59.075Z,47.99
2017-05-31T03:08:09.355Z,47.99
2017-05-31T03:09:19.936Z,47.69
2017-05-31T03:10:29.905Z,48.11
2017-05-31T03:11:40.183Z,47.81
2017-05-31T03:12:50.159Z,48.08
2017-05-31T03:14:00.463Z,47.91
2017-05-31T03:15:10.683Z,47.43
2017-05-31T03:16:20.652Z,47.43
2017-05-31T03:17:30.937Z,47.69
2017-05-31T03:18:40.918Z,47.52
2017-05-31T03:19:50.889Z,47.69
2017-05-31T03:21:01.420Z,47.81
2017-05-31T03:22:11.709Z,47.69
2017-05-31T03:23:21.996Z,47.6
2017-05-31T03:24:32.281Z,47.6
2017-05-31T03:25:42.573Z,47.41
2017-05-31T03:26:53.105Z,47.62
2017-05-31T03:28:03.622Z,47.62
2017-05-31T03:29:13.286Z,47.69
2017-05-31T03:30:23.581Z,47.21
2017-05-31T03:31:33.870Z,47.11
2017-05-31T03:32:44.401Z,47.5
2017-05-31T03:33:54.696Z,47.33
2017-05-31T03:35:04.674Z,47.21
2017-05-31T03:36:14.960Z,47.52
2017-05-31T03:37:24.925Z,47.33
2017-05-31T03:38:35.163Z,47.02
2017-05-31T03:39:45.444Z,47.02
2017-05-31T03:40:55.729Z,47.24
2017-05-31T03:42:06.014Z,47.31
2017-05-31T03:43:15.984Z,47.33
2017-05-31T03:44:26.582Z,47.21
2017-05-31T03:45:36.866Z,47.21
2017-05-31T03:46:46.845Z,47.21
2017-05-31T03:47:57.136Z,47.41
2017-05-31T03:49:07.118Z,47.31
2017-05-31T03:50:17.654Z,47.11
2017-05-31T03:51:27.627Z,46.94
2017-05-31T03:52:37.605Z,47.24
2017-05-31T03:53:47.580Z,47.02
2017-05-31T03:54:57.858Z,46.75
2017-05-31T03:56:08.397Z,46.73
2017-05-31T03:57:18.695Z,47.04
2017-05-31T03:58:28.975Z,46.53
2017-05-31T03:59:38.638Z,46.66
2017-05-31T04:00:48.601Z,46.63
2017-05-31T04:01:59.134Z,46.66
2017-05-31T04:03:08.818Z,46.53
2017-05-31T04:04:19.102Z,46.66
2017-05-31T04:05:29.391Z,46.75
2017-05-31T04:06:39.682Z,46.66
2017-05-31T04:07:50.220Z,46.84
2017-05-31T04:09:00.201Z,46.46
2017-05-31T04:10:10.498Z,46.36
2017-05-31T04:11:20.784Z,46.17
2017-05-31T04:12:31.070Z,46.08
2017-05-31T04:13:41.290Z,46.08
2017-05-31T04:14:51.563Z,46.08
2017-05-31T04:16:01.547Z,45.88
2017-05-31T04:17:11.839Z,45.78
2017-05-31T04:18:21.800Z,45.88
2017-05-31T04:19:32.024Z,45.68
2017-05-31T04:20:42.308Z,45.59
2017-05-31T04:21:52.589Z,45.78
2017-05-31T04:23:02.874Z,45.78
2017-05-31T04:24:13.167Z,45.66
2017-05-31T04:25:23.398Z,45.78
2017-05-31T04:26:33.675Z,45.28
2017-05-31T04:27:43.956Z,45.59
2017-05-31T04:28:53.929Z,45.59
2017-05-31T04:30:03.908Z,45.47
2017-05-31T04:31:13.838Z,45.2
2017-05-31T04:32:24.212Z,45.28
2017-05-31T04:33:34.512Z,45.57
2017-05-31T04:34:44.791Z,45.28
2017-05-31T04:35:55.080Z,45.2
2017-05-31T04:37:05.615Z,45.2
2017-05-31T04:38:15.926Z,45.3
2017-05-31T04:39:26.211Z,45.2
2017-05-31T04:40:36.502Z,45.37
2017-05-31T04:41:46.468Z,45.4
2017-05-31T04:42:56.397Z,45.49
2017-05-31T04:44:06.379Z,45.49
2017-05-31T04:45:16.344Z,44.72
2017-05-31T04:46:26.631Z,45.01
2017-05-31T04:47:36.602Z,44.53
2017-05-31T04:48:47.142Z,44.72
2017-05-31T04:49:57.424Z,44.72
2017-05-31T04:51:07.093Z,45.01
2017-05-31T04:52:17.425Z,44.91
2017-05-31T04:53:27.722Z,44.89
2017-05-31T04:54:38.301Z,44.81
2017-05-31T04:55:48.591Z,44.72
2017-05-31T04:56:58.889Z,44.62
2017-05-31T04:58:08.859Z,44.6
2017-05-31T04:59:18.816Z,44.6
2017-05-31T05:00:29.404Z,44.53
2017-05-31T05:01:39.699Z,44.62
2017-05-31T05:02:49.672Z,44.53
2017-05-31T05:03:59.962Z,44.62
2017-05-31T05:05:10.161Z,44.43
2017-05-31T05:06:20.695Z,44.43
2017-05-31T05:07:30.983Z,44.72
2017-05-31T05:08:40.640Z,44.53
2017-05-31T05:09:50.617Z,44.33
2017-05-31T05:11:00.904Z,44.23
2017-05-31T05:12:11.443Z,44.43
2017-05-31T05:13:21.409Z,44.62
2017-05-31T05:14:31.695Z,44.53
2017-05-31T05:15:41.982Z,44.13
2017-05-31T05:16:51.963Z,43.95
2017-05-31T05:18:02.512Z,43.95
2017-05-31T05:19:12.796Z,43.95
2017-05-31T05:20:23.087Z,43.85
2017-05-31T05:21:33.365Z,43.65
2017-05-31T05:22:43.341Z,43.85
2017-05-31T05:23:53.552Z,43.65
2017-05-31T05:25:03.841Z,43.75
2017-05-31T05:26:13.505Z,43.65
2017-05-31T05:27:23.789Z,43.85
2017-05-31T05:28:33.471Z,43.85
2017-05-31T05:29:44.019Z,43.85
2017-05-31T05:30:54.305Z,44.04
2017-05-31T05:32:04.595Z,43.85
2017-05-31T05:33:14.890Z,44.13
2017-05-31T05:34:25.182Z,43.37
2017-05-31T05:35:35.407Z,43.46
2017-05-31T05:36:45.689Z,43.55
2017-05-31T05:37:56.031Z,43.55
2017-05-31T05:39:06.017Z,43.17
2017-05-31T05:40:16.312Z,42.9
2017-05-31T05:41:26.852Z,42.51
2017-05-31T05:42:36.835Z,42.61
2017-05-31T05:43:46.816Z,42.61
2017-05-31T05:44:57.117Z,42.49
2017-05-31T05:46:07.087Z,42.41
2017-05-31T05:47:16.999Z,42.22
2017-05-31T05:48:27.315Z,42.22
2017-05-31T05:49:37.640Z,41.93
2017-05-31T05:50:47.935Z,41.93
2017-05-31T05:51:57.910Z,42.22
2017-05-31T05:53:08.145Z,41.93
2017-05-31T05:54:18.132Z,42.13
2017-05-31T05:55:28.112Z,42.22
2017-05-31T05:56:38.161Z,42.03
2017-05-31T05:57:48.155Z,42.03
2017-05-31T05:58:58.689Z,41.74
2017-05-31T06:00:08.974Z,42.03
2017-05-31T06:01:19.302Z,41.93
2017-05-31T06:02:29.589Z,41.76
2017-05-31T06:03:39.881Z,41.64
2017-05-31T06:04:49.797Z,41.83
2017-05-31T06:06:00.081Z,41.76
2017-05-31T06:07:10.375Z,41.86
2017-05-31T06:08:20.671Z,41.76
2017-05-31T06:09:30.648Z,41.95
2017-05-31T06:10:41.190Z,41.86
2017-05-31T06:11:51.493Z,41.56
2017-05-31T06:13:01.474Z,41.27
2017-05-31T06:14:11.786Z,41.27
2017-05-31T06:15:22.113Z,41.37
2017-05-31T06:16:32.664Z,41.17
2017-05-31T06:17:42.970Z,41.08
2017-05-31T06:18:53.272Z,41.17
2017-05-31T06:20:03.578Z,41.27
2017-05-31T06:21:13.594Z,40.99
2017-05-31T06:22:24.141Z,41.37
2017-05-31T06:23:34.485Z,41.2
2017-05-31T06:24:44.789Z,41.37
2017-05-31T06:25:54.449Z,40.99
2017-05-31T06:27:04.428Z,41
2017-05-31T06:28:14.659Z,40.91
2017-05-31T06:29:24.326Z,41
2017-05-31T06:30:34.621Z,40.81
2017-05-31T06:31:44.922Z,40.81
2017-05-31T06:32:55.226Z,41
2017-05-31T06:34:05.873Z,41
2017-05-31T06:35:16.161Z,40.81
2017-05-31T06:36:26.145Z,40.91
2017-05-31T06:37:36.132Z,41
2017-05-31T06:38:46.427Z,41
2017-05-31T06:39:56.663Z,40.91
2017-05-31T06:41:06.336Z,40.71
2017-05-31T06:42:16.641Z,40.71
2017-05-31T06:43:26.934Z,40.52
2017-05-31T06:44:37.221Z,40.61
2017-05-31T06:45:47.776Z,40.52
2017-05-31T06:46:58.075Z,40.33
2017-05-31T06:48:08.377Z,40.33
2017-05-31T06:49:18.367Z,40.61
2017-05-31T06:50:28.656Z,40.42
2017-05-31T06:51:38.897Z,40.33
2017-05-31T06:52:49.204Z,40.61
2017-05-31T06:53:59.504Z,40.42
2017-05-31T06:55:09.807Z,40.52
2017-05-31T06:56:19.798Z,40.52
2017-05-31T06:57:30.380Z,40.52
2017-05-31T06:58:40.104Z,39.94
2017-05-31T06:59:50.713Z,40.03
2017-05-31T07:01:00.718Z,40.42
2017-05-31T07:02:11.024Z,40.42
2017-05-31T07:03:21.607Z,39.84
2017-05-31T07:04:31.920Z,39.55
2017-05-31T07:05:42.236Z,39.55
2017-05-31T07:06:52.549Z,39.55
2017-05-31T07:08:02.557Z,39.55
2017-05-31T07:09:13.344Z,39.55
2017-05-31T07:10:23.669Z,39.65
2017-05-31T07:11:33.698Z,39.36
2017-05-31T07:12:44.018Z,39.45
2017-05-31T07:13:54.009Z,39.45
2017-05-31T07:15:04.581Z,39.36
2017-05-31T07:16:14.264Z,39.55
2017-05-31T07:17:24.269Z,39.55
2017-05-31T07:18:34.568Z,39.06
2017-05-31T07:19:44.865Z,39.28
2017-05-31T07:20:55.438Z,39.08
2017-05-31T07:22:05.733Z,39.37
2017-05-31T07:23:16.023Z,39.28
2017-05-31T07:24:26.315Z,38.99
2017-05-31T07:25:36.321Z,39.37
2017-05-31T07:26:46.560Z,39.08
2017-05-31T07:27:56.546Z,39.36
2017-05-31T07:29:06.215Z,39.28
2017-05-31T07:30:15.943Z,39.16
2017-05-31T07:31:26.254Z,39.45
2017-05-31T07:32:36.789Z,39.28
2017-05-31T07:33:47.096Z,39.18
2017-05-31T07:34:57.406Z,39.57
2017-05-31T07:36:07.734Z,39.57
2017-05-31T07:37:18.184Z,39.28
2017-05-31T07:38:28.426Z,39.45
2017-05-31T07:39:38.719Z,39.47
2017-05-31T07:40:49.011Z,39.67
2017-05-31T07:41:59.305Z,39.57
2017-05-31T07:43:09.594Z,39.76
2017-05-31T07:44:20.134Z,40.23
2017-05-31T07:45:30.123Z,40.23
2017-05-31T07:46:40.119Z,39.84
2017-05-31T07:47:50.420Z,39.84
2017-05-31T07:49:00.721Z,39.86
2017-05-31T07:50:11.279Z,39.57
2017-05-31T07:51:21.618Z,39.57
2017-05-31T07:52:31.929Z,39.37
2017-05-31T07:53:42.230Z,39.67
2017-05-31T07:54:52.219Z,39.37
2017-05-31T07:56:02.481Z,39.18
2017-05-31T07:57:12.779Z,39.18
2017-05-31T07:58:22.771Z,39.37
2017-05-31T07:59:32.783Z,39.55
2017-05-31T08:00:43.090Z,39.55
2017-05-31T08:01:53.677Z,38.78
2017-05-31T08:03:03.676Z,38.31
2017-05-31T08:04:13.339Z,38.31
2017-05-31T08:05:23.662Z,38.99
2017-05-31T08:06:33.664Z,38.99
2017-05-31T08:07:43.902Z,38.4
2017-05-31T08:08:53.897Z,38.4
2017-05-31T08:10:03.914Z,38.21
2017-05-31T08:11:13.596Z,38.12
2017-05-31T08:12:23.893Z,38.12
2017-05-31T08:13:34.456Z,37.92
2017-05-31T08:14:44.804Z,37.53
2017-05-31T08:15:55.100Z,37.63
2017-05-31T08:17:05.409Z,37.73
2017-05-31T08:18:15.412Z,37.73
2017-05-31T08:19:25.661Z,38.21
2017-05-31T08:20:35.969Z,37.92
2017-05-31T08:21:46.002Z,36.36
2017-05-31T08:22:56.319Z,36.95
2017-05-31T08:24:06.623Z,36.83
2017-05-31T08:25:17.183Z,36.93
2017-05-31T08:26:27.480Z,37.03
2017-05-31T08:27:37.779Z,36.44
2017-05-31T08:28:48.092Z,36.54
2017-05-31T08:29:58.384Z,36.44
2017-05-31T08:31:08.943Z,36.64
2017-05-31T08:32:18.946Z,36.25
2017-05-31T08:33:29.237Z,36.44
2017-05-31T08:34:39.226Z,36.25
2017-05-31T08:35:49.216Z,36.35
2017-05-31T08:36:59.517Z,36.54
2017-05-31T08:38:09.813Z,35.96
2017-05-31T08:39:19.809Z,36.25
2017-05-31T08:40:30.038Z,36.06
2017-05-31T08:41:40.398Z,35.57
2017-05-31T08:42:50.635Z,35.57
2017-05-31T08:44:00.941Z,34.89
2017-05-31T08:45:10.967Z,35.19
2017-05-31T08:46:21.006Z,35.38
2017-05-31T08:47:31.329Z,35.57
2017-05-31T08:48:41.566Z,35.67
2017-05-31T08:49:51.552Z,36.06
2017-05-31T08:51:01.881Z,36.35
2017-05-31T08:52:12.206Z,36.35
2017-05-31T08:53:22.188Z,36.44
2017-05-31T08:54:32.434Z,36.62
2017-05-31T08:55:44.180Z,36.25
2017-05-31T08:56:53.844Z,36.25
2017-05-31T08:58:04.129Z,36.16
2017-05-31T08:59:14.131Z,35.96
2017-05-31T09:00:24.381Z,36.06
2017-05-31T09:01:34.401Z,35.77
2017-05-31T09:02:44.424Z,36.06
2017-05-31T09:03:54.802Z,35.96
2017-05-31T09:05:05.170Z,35.96
2017-05-31T09:06:15.420Z,35.86
2017-05-31T09:07:25.789Z,35.86
2017-05-31T09:08:36.111Z,36.35
2017-05-31T09:09:45.785Z,35.86
2017-05-31T09:10:56.092Z,35.86
2017-05-31T09:12:06.874Z,35.28
2017-05-31T09:13:17.196Z,35.77
2017-05-31T09:14:27.197Z,35.77
2017-05-31T09:15:37.184Z,35.77
2017-05-31T09:16:47.174Z,35.86
2017-05-31T09:17:57.774Z,35.86
2017-05-31T09:19:07.780Z,35.86
2017-05-31T09:20:17.759Z,35.77
2017-05-31T09:21:28.072Z,35.38
2017-05-31T09:22:38.047Z,35.48
2017-05-31T09:23:48.661Z,35.38
2017-05-31T09:24:58.632Z,35.57
2017-05-31T09:26:08.625Z,34.8
2017-05-31T09:27:18.985Z,34.7
2017-05-31T09:28:29.296Z,34.89
2017-05-31T09:29:39.519Z,34.7
2017-05-31T09:30:49.523Z,34.89
2017-05-31T09:31:59.834Z,34.89
2017-05-31T09:33:10.127Z,34.99
2017-05-31T09:34:20.426Z,35.48
2017-05-31T09:35:31.039Z,35.38
2017-05-31T09:36:41.329Z,35.38
2017-05-31T09:37:51.331Z,35.46
2017-05-31T09:39:01.627Z,34.89
2017-05-31T09:40:11.924Z,34.99
2017-05-31T09:41:22.215Z,34.7
2017-05-31T09:42:32.521Z,34.8
2017-05-31T09:43:42.505Z,34.31
2017-05-31T09:44:52.489Z,34.31
2017-05-31T09:46:02.786Z,34.61
2017-05-31T09:47:13.346Z,34.7
2017-05-31T09:48:23.325Z,34.41
2017-05-31T09:49:33.005Z,33.72
2017-05-31T09:50:42.984Z,33.34
2017-05-31T09:51:52.961Z,33.25
2017-05-31T09:53:03.507Z,33.34
2017-05-31T09:54:13.797Z,34.12
2017-05-31T09:55:23.772Z,33.54
2017-05-31T09:56:34.057Z,33.54
2017-05-31T09:57:44.640Z,33.83
2017-05-31T09:58:55.199Z,34.12
2017-05-31T10:00:05.717Z,34.12
2017-05-31T10:01:15.715Z,33.64
2017-05-31T10:02:26.024Z,34.22
2017-05-31T10:03:35.995Z,34.39
2017-05-31T10:04:45.925Z,34.3
2017-05-31T10:05:55.600Z,34.39
2017-05-31T10:07:05.887Z,34.2
2017-05-31T10:08:15.873Z,34.11
2017-05-31T10:09:26.222Z,34.11
2017-05-31T10:10:36.810Z,34.51
2017-05-31T10:11:46.801Z,33.91
2017-05-31T10:12:56.804Z,34.01
2017-05-31T10:14:07.105Z,33.42
2017-05-31T10:15:17.399Z,34.12
2017-05-31T10:16:27.684Z,33.91
2017-05-31T10:17:37.655Z,33.23
2017-05-31T10:18:47.887Z,33.23
2017-05-31T10:19:58.184Z,33.33
2017-05-31T10:21:08.475Z,33.33
2017-05-31T10:22:18.714Z,33.42
2017-05-31T10:23:29.014Z,33.14
2017-05-31T10:24:38.678Z,33.33
2017-05-31T10:25:48.967Z,33.14
2017-05-31T10:26:58.938Z,33.33
2017-05-31T10:28:09.473Z,33.72
2017-05-31T10:29:19.763Z,33.52
2017-05-31T10:30:29.448Z,32.75
2017-05-31T10:31:39.445Z,32.36
2017-05-31T10:32:49.115Z,32.36
2017-05-31T10:33:59.365Z,32.65
2017-05-31T10:35:09.654Z,32.36
2017-05-31T10:36:19.948Z,33.04
2017-05-31T10:37:30.237Z,33.04
2017-05-31T10:38:40.521Z,32.26
2017-05-31T10:39:51.058Z,32.36
2017-05-31T10:41:01.039Z,32.56
2017-05-31T10:42:11.325Z,32.56
2017-05-31T10:43:21.317Z,32.37
2017-05-31T10:44:31.299Z,32.28
2017-05-31T10:45:41.218Z,31.99
2017-05-31T10:46:51.192Z,32.18
2017-05-31T10:48:01.188Z,32.28
2017-05-31T10:49:11.480Z,32.47
2017-05-31T10:50:21.182Z,32.57
2017-05-31T10:51:31.771Z,32.57
2017-05-31T10:52:42.070Z,32.28
2017-05-31T10:53:52.352Z,32.09
2017-05-31T10:55:02.648Z,30.82
2017-05-31T10:56:12.643Z,30.34
2017-05-31T10:57:23.195Z,31.02
2017-05-31T10:58:33.474Z,31.41
2017-05-31T10:59:43.461Z,31.89
2017-05-31T11:00:53.762Z,31.99
2017-05-31T11:02:04.051Z,31.99
2017-05-31T11:03:14.608Z,31.79
2017-05-31T11:04:24.634Z,32.09
2017-05-31T11:05:34.663Z,32.18
2017-05-31T11:06:44.760Z,32.37
2017-05-31T11:07:55.360Z,31.39
2017-05-31T11:09:05.910Z,31.29
2017-05-31T11:10:15.912Z,31.1
2017-05-31T11:11:26.221Z,31.29
2017-05-31T11:12:35.896Z,31.29
2017-05-31T11:13:45.582Z,31.39
2017-05-31T11:14:55.861Z,31.49
2017-05-31T11:16:05.847Z,30.71
2017-05-31T11:17:16.210Z,30.23
2017-05-31T11:18:26.522Z,30.04
2017-05-31T11:19:36.522Z,29.94
2017-05-31T11:20:47.107Z,30.04
2017-05-31T11:21:57.444Z,30.81
2017-05-31T11:23:07.746Z,31.29
2017-05-31T11:24:18.064Z,31.39
2017-05-31T11:25:28.045Z,30.91
2017-05-31T11:26:38.594Z,30.91
2017-05-31T11:27:48.635Z,31.29
2017-05-31T11:28:58.998Z,31.1
2017-05-31T11:30:09.326Z,31.87
2017-05-31T11:31:19.338Z,32.84
2017-05-31T11:32:29.895Z,33.33
2017-05-31T11:33:39.887Z,33.62
2017-05-31T11:34:50.196Z,32.94
2017-05-31T11:35:59.880Z,32.56
2017-05-31T11:37:10.290Z,33.33
2017-05-31T11:38:20.530Z,32.56
2017-05-31T11:39:30.853Z,32.17
2017-05-31T11:40:40.853Z,32.94
2017-05-31T11:41:50.831Z,33.23
2017-05-31T11:43:00.815Z,33.33
2017-05-31T11:44:11.044Z,31.87
2017-05-31T11:45:21.343Z,33.04
2017-05-31T11:46:31.660Z,33.23
2017-05-31T11:47:41.970Z,33.33
2017-05-31T11:48:51.975Z,33.52
2017-05-31T11:50:02.598Z,32.56
2017-05-31T11:51:12.598Z,32.17
2017-05-31T11:52:22.914Z,32.56
2017-05-31T11:53:33.257Z,32.65
2017-05-31T11:54:42.954Z,32.17
2017-05-31T11:55:53.536Z,32.36
2017-05-31T11:57:03.520Z,32.07
2017-05-31T11:58:13.198Z,31.78
2017-05-31T11:59:23.493Z,31.49
2017-05-31T12:00:33.566Z,31.39
2017-05-31T12:01:43.540Z,31.2
2017-05-31T12:02:53.876Z,31.2
2017-05-31T12:04:04.169Z,31.2
2017-05-31T12:05:14.177Z,31.2
2017-05-31T12:06:24.479Z,31.01
2017-05-31T12:07:34.718Z,30.62
2017-05-31T12:08:45.046Z,30.04
2017-05-31T12:09:55.337Z,30.71
2017-05-31T12:11:05.312Z,30.52
2017-05-31T12:12:15.620Z,30.62
2017-05-31T12:13:25.861Z,30.13
2017-05-31T12:14:36.150Z,30.23
2017-05-31T12:15:46.156Z,30.13
2017-05-31T12:16:56.468Z,30.04
2017-05-31T12:18:06.170Z,29.06
2017-05-31T12:19:16.415Z,27.61
2017-05-31T12:20:26.429Z,28.39
2017-05-31T12:21:36.415Z,29.55
2017-05-31T12:22:46.719Z,30.42
2017-05-31T12:23:57.057Z,30.04
2017-05-31T12:25:07.627Z,30.62
2017-05-31T12:26:17.916Z,29.64
2017-05-31T12:27:27.893Z,30.04
2017-05-31T12:28:37.868Z,30.23
2017-05-31T12:29:48.161Z,30.52
2017-05-31T12:30:58.701Z,31.1
2017-05-31T12:32:09.024Z,31.1
2017-05-31T12:33:19.013Z,30.23
2017-05-31T12:34:29.313Z,30.91
2017-05-31T12:35:39.290Z,31.01
2017-05-31T12:36:49.236Z,31.1
2017-05-31T12:37:59.578Z,30.81
2017-05-31T12:39:09.609Z,30.71
2017-05-31T12:40:19.916Z,30.13
2017-05-31T12:41:29.978Z,31.29
2017-05-31T12:42:40.211Z,31.39
2017-05-31T12:43:50.503Z,31.39
2017-05-31T12:45:00.826Z,31.39
2017-05-31T12:46:10.799Z,31.49
2017-05-31T12:47:21.110Z,31.1
2017-05-31T12:48:31.661Z,31.39
2017-05-31T12:49:41.965Z,31.49
2017-05-31T12:50:52.294Z,29.36
2017-05-31T12:52:01.976Z,28.39
2017-05-31T12:53:11.971Z,29.26
2017-05-31T12:54:22.217Z,29.16
2017-05-31T12:55:32.500Z,29.26
2017-05-31T12:56:42.801Z,30.23
2017-05-31T12:57:53.094Z,30.62
2017-05-31T12:59:03.391Z,30.52
2017-05-31T13:00:13.935Z,30.13
2017-05-31T13:01:24.220Z,30.52
2017-05-31T13:02:34.519Z,30.62
2017-05-31T13:03:44.495Z,30.71
2017-05-31T13:04:54.844Z,30.42
2017-05-31T13:06:05.390Z,30.52
2017-05-31T13:07:15.686Z,30.81
2017-05-31T13:08:25.981Z,30.62
2017-05-31T13:09:35.960Z,30.52
2017-05-31T13:10:46.262Z,30.71
2017-05-31T13:11:56.806Z,30.81
2017-05-31T13:13:06.477Z,30.04
2017-05-31T13:14:16.770Z,30.04
2017-05-31T13:15:26.740Z,29.64
2017-05-31T13:16:36.444Z,29.64
2017-05-31T13:17:46.981Z,29.55
2017-05-31T13:18:57.276Z,29.46
2017-05-31T13:20:07.286Z,29.46
2017-05-31T13:21:17.264Z,29.26
2017-05-31T13:22:27.556Z,29.06
2017-05-31T13:23:38.100Z,28.58
2017-05-31T13:24:48.391Z,28.97
2017-05-31T13:25:58.670Z,29.06
2017-05-31T13:27:08.047Z,28.77
2017-05-31T13:28:18.369Z,28.77
2017-05-31T13:29:28.606Z,28.39
2017-05-31T13:30:38.889Z,28.4
2017-05-31T13:31:49.238Z,28.79
2017-05-31T13:32:59.232Z,28.77
2017-05-31T13:34:09.547Z,28.49
2017-05-31T13:35:19.772Z,28.87
2017-05-31T13:36:29.753Z,28.77
2017-05-31T13:37:40.071Z,28.77
2017-05-31T13:38:50.376Z,29.08
2017-05-31T13:40:00.656Z,29.08
2017-05-31T13:41:11.196Z,28.89
2017-05-31T13:42:21.555Z,29.16
2017-05-31T13:43:31.842Z,29.27
2017-05-31T13:44:42.362Z,29.46
2017-05-31T13:45:52.673Z,29.76
2017-05-31T13:47:03.004Z,29.47
2017-05-31T13:48:13.551Z,29.66
2017-05-31T13:49:23.527Z,29.37
2017-05-31T13:50:33.545Z,30.05
2017-05-31T13:51:43.561Z,29.95
2017-05-31T13:52:53.882Z,29.95
2017-05-31T13:54:03.881Z,30.73
2017-05-31T13:55:14.174Z,31.02
2017-05-31T13:56:24.465Z,31.29
2017-05-31T13:57:34.801Z,31.79
2017-05-31T13:58:45.353Z,31.7
2017-05-31T13:59:55.688Z,31.31
2017-05-31T14:01:05.981Z,31.02
2017-05-31T14:02:15.958Z,30.73
2017-05-31T14:03:26.256Z,30.42
2017-05-31T14:04:36.477Z,29.95
2017-05-31T14:05:46.480Z,29.95
2017-05-31T14:06:56.459Z,29.66
2017-05-31T14:08:06.746Z,29.85
2017-05-31T14:09:16.726Z,29.95
2017-05-31T14:10:26.958Z,30.05
2017-05-31T14:11:37.250Z,29.47
2017-05-31T14:12:47.573Z,29.95
2017-05-31T14:13:57.865Z,29.55
2017-05-31T14:15:08.149Z,29.66
2017-05-31T14:16:18.682Z,29.47
2017-05-31T14:17:28.963Z,29.57
2017-05-31T14:18:39.253Z,29.08
2017-05-31T14:19:49.235Z,28.4
2017-05-31T14:20:59.207Z,28.4
2017-05-31T14:22:09.432Z,28.4
2017-05-31T14:23:19.723Z,27.43
2017-05-31T14:24:29.716Z,27.43
2017-05-31T14:25:39.704Z,26.85
2017-05-31T14:26:50.001Z,25.88
2017-05-31T14:28:00.539Z,25.68
2017-05-31T14:29:10.850Z,26.37
2017-05-31T14:30:20.827Z,26.46
2017-05-31T14:31:31.112Z,26.46
2017-05-31T14:32:40.798Z,26.65
2017-05-31T14:33:51.340Z,26.46
2017-05-31T14:35:01.637Z,26.37
2017-05-31T14:36:11.928Z,24.82
2017-05-31T14:37:22.221Z,25.19
2017-05-31T14:38:32.514Z,25.2
2017-05-31T14:39:42.741Z,24.91
2017-05-31T14:40:52.717Z,25.01
2017-05-31T14:42:03.015Z,25.88
2017-05-31T14:43:13.305Z,24.99
2017-05-31T14:44:23.595Z,25.38
2017-05-31T14:45:34.154Z,24.72
2017-05-31T14:46:44.448Z,23.26
2017-05-31T14:47:54.740Z,22.77
2017-05-31T14:49:04.733Z,23.36
2017-05-31T14:50:14.707Z,23.16
2017-05-31T14:51:25.245Z,23.94
2017-05-31T14:52:35.557Z,25.01
2017-05-31T14:53:45.844Z,24.51
2017-05-31T14:54:56.128Z,23.16
2017-05-31T14:56:06.407Z,23.06
2017-05-31T14:57:16.941Z,23.06
2017-05-31T14:58:26.916Z,24.03
2017-05-31T14:59:36.897Z,23.06
2017-05-31T15:00:47.197Z,22.09
2017-05-31T15:01:57.498Z,22.19
2017-05-31T15:03:08.034Z,21.8
2017-05-31T15:04:18.326Z,21.89
2017-05-31T15:05:28.628Z,21.99
2017-05-31T15:06:38.620Z,21.99